sensor_id;sensor_type;location;lat;lon;timestamp;pressure;altitude;pressure_sealevel;temperature;humidity
20105;BME280;10212;42.714;23.310;2022-11-18T00:00:29;94167.41;;;6.29;100.00
20105;BME280;10212;42.714;23.310;2022-11-18T00:05:30;94171.00;;;6.27;100.00
20105;BME280;10212;42.714;23.310;2022-11-18T00:10:31;94172.78;;;6.20;100.00
20105;BME280;10212;42.714;23.310;2022-11-18T00:15:31;94171.78;;;6.21;100.00
20105;BME280;10212;42.714;23.310;2022-11-18T00:20:33;94170.78;;;6.09;100.00
20105;BME280;10212;42.714;23.310;2022-11-18T00:25:34;94180.28;;;6.01;100.00
20105;BME280;10212;42.714;23.310;2022-11-18T00:30:34;94177.50;;;5.96;100.00
20105;BME280;10212;42.714;23.310;2022-11-18T00:35:35;94179.50;;;5.94;100.00
20105;BME280;10212;42.714;23.310;2022-11-18T00:40:35;94163.94;;;5.87;100.00
20105;BME280;10212;42.714;23.310;2022-11-18T00:45:36;94167.84;;;5.56;100.00
20105;BME280;10212;42.714;23.310;2022-11-18T00:50:36;94174.22;;;5.60;100.00
20105;BME280;10212;42.714;23.310;2022-11-18T00:55:37;94177.78;;;5.59;100.00
20105;BME280;10212;42.714;23.310;2022-11-18T01:00:37;94165.88;;;5.58;100.00
20105;BME280;10212;42.714;23.310;2022-11-18T01:05:38;94174.59;;;5.50;100.00
20105;BME280;10212;42.714;23.310;2022-11-18T01:10:39;94173.75;;;5.43;100.00
20105;BME280;10212;42.714;23.310;2022-11-18T01:15:41;94173.38;;;5.39;100.00
20105;BME280;10212;42.714;23.310;2022-11-18T01:20:43;94179.28;;;5.26;100.00
20105;BME280;10212;42.714;23.310;2022-11-18T01:25:45;94180.84;;;5.27;100.00
20105;BME280;10212;42.714;23.310;2022-11-18T01:30:47;94185.97;;;5.14;100.00
20105;BME280;10212;42.714;23.310;2022-11-18T01:35:47;94184.41;;;5.19;100.00
20105;BME280;10212;42.714;23.310;2022-11-18T01:40:48;94186.41;;;5.24;100.00
20105;BME280;10212;42.714;23.310;2022-11-18T01:45:50;94184.81;;;5.23;100.00
20105;BME280;10212;42.714;23.310;2022-11-18T01:50:53;94177.28;;;5.28;100.00
20105;BME280;10212;42.714;23.310;2022-11-18T01:55:59;94183.66;;;5.33;100.00
20105;BME280;10212;42.714;23.310;2022-11-18T02:01:02;94172.03;;;5.15;100.00
20105;BME280;10212;42.714;23.310;2022-11-18T02:06:04;94169.84;;;5.12;100.00
20105;BME280;10212;42.714;23.310;2022-11-18T02:11:10;94178.56;;;5.04;100.00
20105;BME280;10212;42.714;23.310;2022-11-18T02:16:54;94176.41;;;5.07;100.00
20105;BME280;10212;42.714;23.310;2022-11-18T02:22:05;94169.81;;;5.05;100.00
20105;BME280;10212;42.714;23.310;2022-11-18T02:32:56;94173.25;;;5.19;100.00
20105;BME280;10212;42.714;23.310;2022-11-18T02:38:04;94164.75;;;5.25;100.00
20105;BME280;10212;42.714;23.310;2022-11-18T02:43:11;94169.97;;;5.32;100.00
20105;BME280;10212;42.714;23.310;2022-11-18T02:48:13;94162.97;;;5.33;100.00
20105;BME280;10212;42.714;23.310;2022-11-18T02:53:17;94160.19;;;5.27;100.00
20105;BME280;10212;42.714;23.310;2022-11-18T02:58:20;94162.94;;;5.26;100.00
20105;BME280;10212;42.714;23.310;2022-11-18T03:03:39;94183.81;;;5.17;100.00
20105;BME280;10212;42.714;23.310;2022-11-18T03:09:23;94178.00;;;5.09;100.00
20105;BME280;10212;42.714;23.310;2022-11-18T03:15:07;94178.81;;;5.16;100.00
20105;BME280;10212;42.714;23.310;2022-11-18T03:20:35;94173.31;;;5.33;100.00
20105;BME280;10212;42.714;23.310;2022-11-18T03:25:44;94166.75;;;5.30;100.00
20105;BME280;10212;42.714;23.310;2022-11-18T03:36:15;94161.41;;;5.31;100.00
20105;BME280;10212;42.714;23.310;2022-11-18T03:41:18;94163.41;;;5.36;100.00
20105;BME280;10212;42.714;23.310;2022-11-18T03:46:38;94155.34;;;5.11;100.00
20105;BME280;10212;42.714;23.310;2022-11-18T03:51:53;94141.63;;;5.17;100.00
20105;BME280;10212;42.714;23.310;2022-11-18T03:57:14;94144.88;;;5.33;100.00
20105;BME280;10212;42.714;23.310;2022-11-18T04:02:24;94144.53;;;5.36;100.00
20105;BME280;10212;42.714;23.310;2022-11-18T04:12:42;94152.53;;;5.61;100.00
20105;BME280;10212;42.714;23.310;2022-11-18T04:17:44;94148.78;;;5.71;100.00
20105;BME280;10212;42.714;23.310;2022-11-18T04:22:45;94152.97;;;5.78;100.00
20105;BME280;10212;42.714;23.310;2022-11-18T04:27:45;94158.94;;;5.72;100.00
20105;BME280;10212;42.714;23.310;2022-11-18T04:32:46;94169.47;;;5.64;100.00
20105;BME280;10212;42.714;23.310;2022-11-18T04:37:46;94175.59;;;5.49;100.00
20105;BME280;10212;42.714;23.310;2022-11-18T04:42:47;94183.72;;;5.46;100.00
20105;BME280;10212;42.714;23.310;2022-11-18T04:47:48;94178.53;;;5.39;100.00
20105;BME280;10212;42.714;23.310;2022-11-18T04:52:48;94172.97;;;5.42;100.00
20105;BME280;10212;42.714;23.310;2022-11-18T04:57:49;94178.38;;;5.48;100.00
20105;BME280;10212;42.714;23.310;2022-11-18T05:02:49;94180.97;;;5.54;100.00
20105;BME280;10212;42.714;23.310;2022-11-18T05:07:50;94170.84;;;5.60;100.00
20105;BME280;10212;42.714;23.310;2022-11-18T05:12:51;94170.28;;;5.71;100.00
20105;BME280;10212;42.714;23.310;2022-11-18T05:17:51;94169.91;;;5.74;100.00
20105;BME280;10212;42.714;23.310;2022-11-18T05:22:52;94175.63;;;5.63;100.00
20105;BME280;10212;42.714;23.310;2022-11-18T05:27:54;94187.41;;;5.86;100.00
20105;BME280;10212;42.714;23.310;2022-11-18T05:32:54;94187.88;;;6.03;100.00
20105;BME280;10212;42.714;23.310;2022-11-18T05:43:52;94166.00;;;6.12;100.00
20105;BME280;10212;42.714;23.310;2022-11-18T05:48:53;94172.19;;;6.18;100.00
20105;BME280;10212;42.714;23.310;2022-11-18T05:53:56;94179.38;;;6.30;100.00
20105;BME280;10212;42.714;23.310;2022-11-18T05:58:57;94186.75;;;6.46;100.00
20105;BME280;10212;42.714;23.310;2022-11-18T06:03:59;94174.59;;;6.54;100.00
20105;BME280;10212;42.714;23.310;2022-11-18T06:09:05;94174.59;;;6.60;100.00
20105;BME280;10212;42.714;23.310;2022-11-18T06:14:19;94180.16;;;6.64;100.00
20105;BME280;10212;42.714;23.310;2022-11-18T06:19:22;94176.78;;;6.57;100.00
20105;BME280;10212;42.714;23.310;2022-11-18T06:24:22;94181.16;;;6.56;100.00
20105;BME280;10212;42.714;23.310;2022-11-18T06:29:24;94168.22;;;6.49;100.00
20105;BME280;10212;42.714;23.310;2022-11-18T06:34:25;94168.41;;;6.41;100.00
20105;BME280;10212;42.714;23.310;2022-11-18T06:39:26;94165.59;;;6.56;100.00
20105;BME280;10212;42.714;23.310;2022-11-18T06:44:27;94167.03;;;6.52;100.00
20105;BME280;10212;42.714;23.310;2022-11-18T06:49:36;94158.81;;;6.69;100.00
20105;BME280;10212;42.714;23.310;2022-11-18T06:54:38;94165.59;;;6.83;100.00
20105;BME280;10212;42.714;23.310;2022-11-18T06:59:39;94173.97;;;6.79;100.00
20105;BME280;10212;42.714;23.310;2022-11-18T07:04:40;94175.16;;;6.83;100.00
20105;BME280;10212;42.714;23.310;2022-11-18T07:09:42;94165.19;;;6.86;100.00
20105;BME280;10212;42.714;23.310;2022-11-18T07:14:44;94165.19;;;6.93;100.00
20105;BME280;10212;42.714;23.310;2022-11-18T07:19:45;94144.63;;;6.98;100.00
20105;BME280;10212;42.714;23.310;2022-11-18T07:24:46;94148.75;;;7.13;100.00
20105;BME280;10212;42.714;23.310;2022-11-18T07:29:47;94148.91;;;7.32;100.00
20105;BME280;10212;42.714;23.310;2022-11-18T07:34:48;94134.91;;;7.40;100.00
20105;BME280;10212;42.714;23.310;2022-11-18T07:39:48;94128.44;;;7.56;100.00
20105;BME280;10212;42.714;23.310;2022-11-18T07:44:49;94146.97;;;7.66;100.00
20105;BME280;10212;42.714;23.310;2022-11-18T07:49:50;94143.97;;;7.63;100.00
20105;BME280;10212;42.714;23.310;2022-11-18T07:54:50;94138.22;;;7.54;100.00
20105;BME280;10212;42.714;23.310;2022-11-18T07:59:51;94150.69;;;7.38;100.00
20105;BME280;10212;42.714;23.310;2022-11-18T08:04:51;94173.81;;;7.40;100.00
20105;BME280;10212;42.714;23.310;2022-11-18T08:09:52;94168.41;;;7.48;100.00
20105;BME280;10212;42.714;23.310;2022-11-18T08:14:52;94185.78;;;7.47;100.00
20105;BME280;10212;42.714;23.310;2022-11-18T08:19:53;94168.16;;;7.56;100.00
20105;BME280;10212;42.714;23.310;2022-11-18T08:24:53;94150.09;;;7.75;100.00
20105;BME280;10212;42.714;23.310;2022-11-18T08:29:54;94147.19;;;7.97;100.00
20105;BME280;10212;42.714;23.310;2022-11-18T08:34:54;94130.59;;;8.30;100.00
20105;BME280;10212;42.714;23.310;2022-11-18T08:39:55;94122.66;;;8.44;100.00
20105;BME280;10212;42.714;23.310;2022-11-18T08:44:55;94118.66;;;8.48;100.00
20105;BME280;10212;42.714;23.310;2022-11-18T08:49:56;94097.16;;;8.15;100.00
20105;BME280;10212;42.714;23.310;2022-11-18T08:54:57;94105.06;;;7.95;100.00
20105;BME280;10212;42.714;23.310;2022-11-18T08:59:57;94085.72;;;8.67;100.00
20105;BME280;10212;42.714;23.310;2022-11-18T09:04:58;94057.19;;;8.61;100.00
20105;BME280;10212;42.714;23.310;2022-11-18T09:09:59;94039.97;;;8.22;100.00
20105;BME280;10212;42.714;23.310;2022-11-18T09:14:59;94062.19;;;7.86;100.00
20105;BME280;10212;42.714;23.310;2022-11-18T09:20:00;94054.19;;;7.87;100.00
20105;BME280;10212;42.714;23.310;2022-11-18T09:25:00;94060.56;;;7.91;100.00
20105;BME280;10212;42.714;23.310;2022-11-18T09:30:01;94037.75;;;7.75;100.00
20105;BME280;10212;42.714;23.310;2022-11-18T09:35:02;94048.66;;;8.09;100.00
20105;BME280;10212;42.714;23.310;2022-11-18T09:40:02;94034.13;;;8.45;100.00
20105;BME280;10212;42.714;23.310;2022-11-18T09:45:27;93999.94;;;8.49;100.00
20105;BME280;10212;42.714;23.310;2022-11-18T09:50:28;93990.25;;;8.93;100.00
20105;BME280;10212;42.714;23.310;2022-11-18T09:55:29;93992.13;;;8.86;100.00
20105;BME280;10212;42.714;23.310;2022-11-18T10:00:31;93974.81;;;8.80;100.00
20105;BME280;10212;42.714;23.310;2022-11-18T10:11:06;93979.53;;;8.71;100.00
20105;BME280;10212;42.714;23.310;2022-11-18T10:21:23;93965.22;;;8.80;100.00
20105;BME280;10212;42.714;23.310;2022-11-18T10:26:35;93953.34;;;9.03;100.00
20105;BME280;10212;42.714;23.310;2022-11-18T10:31:42;93952.91;;;9.19;100.00
20105;BME280;10212;42.714;23.310;2022-11-18T10:42:04;93922.34;;;9.93;100.00
20105;BME280;10212;42.714;23.310;2022-11-18T10:47:25;93926.91;;;10.38;100.00
20105;BME280;10212;42.714;23.310;2022-11-18T10:52:28;93900.25;;;10.90;97.91
20105;BME280;10212;42.714;23.310;2022-11-18T10:57:35;93897.13;;;11.22;94.95
20105;BME280;10212;42.714;23.310;2022-11-18T11:02:39;93902.19;;;11.80;94.52
20105;BME280;10212;42.714;23.310;2022-11-18T11:07:40;93907.34;;;12.32;87.77
20105;BME280;10212;42.714;23.310;2022-11-18T11:12:44;93897.22;;;12.63;85.84
20105;BME280;10212;42.714;23.310;2022-11-18T11:17:57;93892.31;;;12.95;85.19
20105;BME280;10212;42.714;23.310;2022-11-18T11:23:17;93883.81;;;13.10;84.30
20105;BME280;10212;42.714;23.310;2022-11-18T11:28:31;93869.59;;;13.00;85.18
20105;BME280;10212;42.714;23.310;2022-11-18T11:49:29;93853.22;;;13.48;84.45
20105;BME280;10212;42.714;23.310;2022-11-18T11:54:49;93860.16;;;13.32;85.05
20105;BME280;10212;42.714;23.310;2022-11-18T12:00:01;93852.75;;;12.86;86.70
20105;BME280;10212;42.714;23.310;2022-11-18T12:20:55;93836.63;;;12.44;89.75
20105;BME280;10212;42.714;23.310;2022-11-18T12:26:04;93812.69;;;12.58;88.64
20105;BME280;10212;42.714;23.310;2022-11-18T12:36:29;93815.56;;;12.84;88.78
20105;BME280;10212;42.714;23.310;2022-11-18T12:47:02;93797.56;;;13.25;87.88
20105;BME280;10212;42.714;23.310;2022-11-18T12:57:32;93767.84;;;13.42;82.52
20105;BME280;10212;42.714;23.310;2022-11-18T13:02:33;93768.91;;;13.51;83.57
20105;BME280;10212;42.714;23.310;2022-11-18T13:07:43;93755.09;;;13.56;81.40
20105;BME280;10212;42.714;23.310;2022-11-18T13:13:03;93739.72;;;13.70;81.47
20105;BME280;10212;42.714;23.310;2022-11-18T13:18:14;93726.38;;;13.82;75.46
20105;BME280;10212;42.714;23.310;2022-11-18T13:28:42;93725.75;;;14.39;72.49
20105;BME280;10212;42.714;23.310;2022-11-18T13:33:46;93741.19;;;14.30;73.71
20105;BME280;10212;42.714;23.310;2022-11-18T13:44:18;93710.09;;;13.65;80.11
20105;BME280;10212;42.714;23.310;2022-11-18T13:49:26;93708.41;;;13.48;82.96
20105;BME280;10212;42.714;23.310;2022-11-18T13:54:29;93720.81;;;13.58;80.42
20105;BME280;10212;42.714;23.310;2022-11-18T13:59:30;93728.06;;;13.50;81.64
20105;BME280;10212;42.714;23.310;2022-11-18T14:04:33;93719.66;;;13.48;80.88
20105;BME280;10212;42.714;23.310;2022-11-18T14:09:34;93707.59;;;13.37;80.50
20105;BME280;10212;42.714;23.310;2022-11-18T14:14:36;93704.00;;;13.54;78.96
20105;BME280;10212;42.714;23.310;2022-11-18T14:19:37;93690.34;;;13.51;79.40
20105;BME280;10212;42.714;23.310;2022-11-18T14:24:40;93701.41;;;13.59;77.58
20105;BME280;10212;42.714;23.310;2022-11-18T14:29:48;93702.47;;;13.58;77.33
20105;BME280;10212;42.714;23.310;2022-11-18T14:34:57;93691.44;;;13.56;77.61
20105;BME280;10212;42.714;23.310;2022-11-18T14:39:58;93686.53;;;13.70;75.85
20105;BME280;10212;42.714;23.310;2022-11-18T14:44:59;93707.72;;;13.63;76.42
20105;BME280;10212;42.714;23.310;2022-11-18T14:49:59;93711.41;;;13.67;75.40
20105;BME280;10212;42.714;23.310;2022-11-18T14:54:59;93716.72;;;13.83;73.29
20105;BME280;10212;42.714;23.310;2022-11-18T15:00:01;93710.34;;;13.63;75.87
20105;BME280;10212;42.714;23.310;2022-11-18T15:05:01;93736.03;;;13.71;74.50
20105;BME280;10212;42.714;23.310;2022-11-18T15:10:02;93739.75;;;13.81;71.98
20105;BME280;10212;42.714;23.310;2022-11-18T15:15:03;93722.00;;;14.04;71.70
20105;BME280;10212;42.714;23.310;2022-11-18T15:20:04;93750.81;;;13.98;68.88
20105;BME280;10212;42.714;23.310;2022-11-18T15:25:07;93734.03;;;14.05;70.38
20105;BME280;10212;42.714;23.310;2022-11-18T15:30:11;93694.19;;;14.03;70.65
20105;BME280;10212;42.714;23.310;2022-11-18T15:35:12;93696.06;;;14.07;70.31
20105;BME280;10212;42.714;23.310;2022-11-18T15:40:13;93677.72;;;14.13;70.22
20105;BME280;10212;42.714;23.310;2022-11-18T15:45:13;93684.31;;;14.31;69.60
20105;BME280;10212;42.714;23.310;2022-11-18T15:50:14;93664.09;;;14.21;72.20
20105;BME280;10212;42.714;23.310;2022-11-18T15:55:15;93672.22;;;14.19;71.97
20105;BME280;10212;42.714;23.310;2022-11-18T16:00:15;93664.88;;;14.16;71.81
20105;BME280;10212;42.714;23.310;2022-11-18T16:05:16;93653.34;;;14.02;72.36
20105;BME280;10212;42.714;23.310;2022-11-18T16:10:17;93661.44;;;13.95;72.57
20105;BME280;10212;42.714;23.310;2022-11-18T16:15:35;93663.25;;;13.89;73.44
20105;BME280;10212;42.714;23.310;2022-11-18T16:20:42;93660.09;;;13.77;71.83
20105;BME280;10212;42.714;23.310;2022-11-18T16:25:43;93687.31;;;13.65;73.32
20105;BME280;10212;42.714;23.310;2022-11-18T16:30:49;93736.88;;;13.34;75.79
20105;BME280;10212;42.714;23.310;2022-11-18T16:36:08;93747.63;;;12.61;81.29
20105;BME280;10212;42.714;23.310;2022-11-18T16:41:08;93740.78;;;12.05;86.81
20105;BME280;10212;42.714;23.310;2022-11-18T16:46:29;93747.38;;;11.85;90.08
20105;BME280;10212;42.714;23.310;2022-11-18T16:51:32;93746.00;;;11.77;90.02
20105;BME280;10212;42.714;23.310;2022-11-18T16:56:33;93742.94;;;11.63;91.42
20105;BME280;10212;42.714;23.310;2022-11-18T17:01:34;93731.16;;;11.61;91.00
20105;BME280;10212;42.714;23.310;2022-11-18T17:06:35;93726.00;;;11.66;90.96
20105;BME280;10212;42.714;23.310;2022-11-18T17:11:35;93722.13;;;11.68;92.55
20105;BME280;10212;42.714;23.310;2022-11-18T17:16:36;93709.28;;;11.22;96.08
20105;BME280;10212;42.714;23.310;2022-11-18T17:21:36;93720.06;;;11.08;97.00
20105;BME280;10212;42.714;23.310;2022-11-18T17:26:37;93700.63;;;10.99;97.75
20105;BME280;10212;42.714;23.310;2022-11-18T17:31:38;93706.19;;;10.85;99.25
20105;BME280;10212;42.714;23.310;2022-11-18T17:36:40;93709.81;;;10.84;98.18
20105;BME280;10212;42.714;23.310;2022-11-18T17:41:41;93692.72;;;10.94;97.20
20105;BME280;10212;42.714;23.310;2022-11-18T17:47:00;93686.25;;;10.96;97.11
20105;BME280;10212;42.714;23.310;2022-11-18T17:52:02;93663.66;;;10.85;97.29
20105;BME280;10212;42.714;23.310;2022-11-18T17:57:02;93672.66;;;10.77;97.42
20105;BME280;10212;42.714;23.310;2022-11-18T18:02:03;93682.09;;;10.78;97.46
20105;BME280;10212;42.714;23.310;2022-11-18T18:07:04;93657.03;;;10.77;97.35
20105;BME280;10212;42.714;23.310;2022-11-18T18:12:05;93665.34;;;10.74;97.18
20105;BME280;10212;42.714;23.310;2022-11-18T18:17:25;93666.84;;;10.70;98.36
20105;BME280;10212;42.714;23.310;2022-11-18T18:22:26;93668.28;;;10.60;99.01
20105;BME280;10212;42.714;23.310;2022-11-18T18:27:29;93670.97;;;10.66;98.15
20105;BME280;10212;42.714;23.310;2022-11-18T18:32:30;93678.38;;;10.74;97.29
20105;BME280;10212;42.714;23.310;2022-11-18T18:37:31;93685.31;;;10.85;97.15
20105;BME280;10212;42.714;23.310;2022-11-18T18:42:31;93663.56;;;10.97;96.21
20105;BME280;10212;42.714;23.310;2022-11-18T18:47:35;93689.19;;;11.00;95.53
20105;BME280;10212;42.714;23.310;2022-11-18T18:52:37;93681.72;;;11.09;95.05
20105;BME280;10212;42.714;23.310;2022-11-18T18:57:38;93683.19;;;11.22;94.23
20105;BME280;10212;42.714;23.310;2022-11-18T19:02:39;93704.31;;;11.43;92.68
20105;BME280;10212;42.714;23.310;2022-11-18T19:07:42;93697.66;;;11.52;93.03
20105;BME280;10212;42.714;23.310;2022-11-18T19:12:44;93708.75;;;11.65;91.15
20105;BME280;10212;42.714;23.310;2022-11-18T19:17:51;93711.69;;;11.68;91.84
20105;BME280;10212;42.714;23.310;2022-11-18T19:22:51;93718.28;;;11.76;90.26
20105;BME280;10212;42.714;23.310;2022-11-18T19:27:52;93713.19;;;11.87;89.77
20105;BME280;10212;42.714;23.310;2022-11-18T19:32:53;93724.06;;;12.01;88.82
20105;BME280;10212;42.714;23.310;2022-11-18T19:37:57;93728.97;;;11.97;88.59
20105;BME280;10212;42.714;23.310;2022-11-18T19:42:58;93747.00;;;12.21;86.38
20105;BME280;10212;42.714;23.310;2022-11-18T19:47:58;93785.22;;;12.27;86.80
20105;BME280;10212;42.714;23.310;2022-11-18T19:53:00;93778.16;;;12.28;86.68
20105;BME280;10212;42.714;23.310;2022-11-18T19:58:21;93799.91;;;12.34;86.68
20105;BME280;10212;42.714;23.310;2022-11-18T20:03:22;93828.56;;;12.73;84.25
20105;BME280;10212;42.714;23.310;2022-11-18T20:08:23;93829.53;;;13.33;81.84
20105;BME280;10212;42.714;23.310;2022-11-18T20:13:24;93846.03;;;14.15;78.92
20105;BME280;10212;42.714;23.310;2022-11-18T20:18:24;93887.56;;;13.19;88.99
20105;BME280;10212;42.714;23.310;2022-11-18T20:23:25;93893.47;;;12.32;95.78
20105;BME280;10212;42.714;23.310;2022-11-18T20:28:33;93902.69;;;12.17;97.10
20105;BME280;10212;42.714;23.310;2022-11-18T20:33:35;93916.72;;;12.11;98.46
20105;BME280;10212;42.714;23.310;2022-11-18T20:38:36;93904.63;;;12.04;99.77
20105;BME280;10212;42.714;23.310;2022-11-18T20:43:37;93896.97;;;11.80;100.00
20105;BME280;10212;42.714;23.310;2022-11-18T20:48:38;93880.59;;;11.68;100.00
20105;BME280;10212;42.714;23.310;2022-11-18T20:53:39;93879.75;;;11.45;100.00
20105;BME280;10212;42.714;23.310;2022-11-18T20:58:41;93897.63;;;11.19;100.00
20105;BME280;10212;42.714;23.310;2022-11-18T21:03:50;93910.31;;;10.98;100.00
20105;BME280;10212;42.714;23.310;2022-11-18T21:08:55;93911.53;;;10.78;100.00
20105;BME280;10212;42.714;23.310;2022-11-18T21:13:57;93914.63;;;10.75;100.00
20105;BME280;10212;42.714;23.310;2022-11-18T21:19:16;93911.44;;;10.73;100.00
20105;BME280;10212;42.714;23.310;2022-11-18T21:24:26;93896.03;;;10.71;100.00
20105;BME280;10212;42.714;23.310;2022-11-18T21:29:29;93899.13;;;10.68;100.00
20105;BME280;10212;42.714;23.310;2022-11-18T21:39:30;93912.94;;;10.98;100.00
20105;BME280;10212;42.714;23.310;2022-11-18T21:44:30;93913.25;;;11.02;100.00
20105;BME280;10212;42.714;23.310;2022-11-18T21:49:31;93923.44;;;11.03;100.00
20105;BME280;10212;42.714;23.310;2022-11-18T21:54:31;93921.50;;;11.11;100.00
20105;BME280;10212;42.714;23.310;2022-11-18T21:59:34;93931.94;;;11.11;100.00
20105;BME280;10212;42.714;23.310;2022-11-18T22:04:34;93938.72;;;11.12;100.00
20105;BME280;10212;42.714;23.310;2022-11-18T22:09:55;93944.97;;;11.11;100.00
20105;BME280;10212;42.714;23.310;2022-11-18T22:14:57;93961.63;;;11.09;100.00
20105;BME280;10212;42.714;23.310;2022-11-18T22:19:58;93963.69;;;11.07;100.00
20105;BME280;10212;42.714;23.310;2022-11-18T22:24:58;93978.22;;;11.03;100.00
20105;BME280;10212;42.714;23.310;2022-11-18T22:29:59;93989.66;;;10.73;100.00
20105;BME280;10212;42.714;23.310;2022-11-18T22:35:00;93988.00;;;10.43;100.00
20105;BME280;10212;42.714;23.310;2022-11-18T22:40:01;94006.25;;;10.31;100.00
20105;BME280;10212;42.714;23.310;2022-11-18T22:45:01;94021.53;;;10.27;100.00
20105;BME280;10212;42.714;23.310;2022-11-18T22:50:04;94048.06;;;10.24;100.00
20105;BME280;10212;42.714;23.310;2022-11-18T22:55:05;94065.16;;;10.20;100.00
20105;BME280;10212;42.714;23.310;2022-11-18T23:00:06;94087.31;;;10.10;100.00
20105;BME280;10212;42.714;23.310;2022-11-18T23:05:07;94104.63;;;10.05;100.00
20105;BME280;10212;42.714;23.310;2022-11-18T23:10:10;94103.06;;;10.04;100.00
20105;BME280;10212;42.714;23.310;2022-11-18T23:15:11;94110.19;;;10.08;100.00
20105;BME280;10212;42.714;23.310;2022-11-18T23:20:11;94116.09;;;10.16;100.00
20105;BME280;10212;42.714;23.310;2022-11-18T23:25:12;94121.53;;;10.26;100.00
20105;BME280;10212;42.714;23.310;2022-11-18T23:30:13;94123.38;;;10.37;100.00
20105;BME280;10212;42.714;23.310;2022-11-18T23:35:13;94114.19;;;10.35;100.00
20105;BME280;10212;42.714;23.310;2022-11-18T23:40:14;94127.00;;;10.36;100.00
20105;BME280;10212;42.714;23.310;2022-11-18T23:45:14;94108.91;;;10.42;100.00
20105;BME280;10212;42.714;23.310;2022-11-18T23:50:15;94137.00;;;10.40;100.00
20105;BME280;10212;42.714;23.310;2022-11-18T23:55:15;94153.19;;;10.42;100.00
